Time;durP1;ratioP1;P1;durP2;ratioP2;P2;SDS_P1;SDS_P2;PMS_P1;PMS_P2;Temp;Humidity;BMP_temperature;BMP_pressure;BME280_temperature;BME280_humidity;BME280_pressure;Samples;Min_cycle;Max_cycle;Signal;HPM_P1;HPM_P2
2021/03/05 00:16:47;;;;;;;;;;;;;;;;;;;;;
2021/03/05 05:31:14;;;;;;;25.17;13.95;;;;;;;6.93;50.20;94356.25;827707;71;33219;-80
2021/03/05 05:46:12;;;;;;;24.70;15.85;;;;;;;9.10;45.98;94359.44;828241;71;29749;-79
2021/03/05 06:01:15;;;;;;;25.30;16.40;;;;;;;10.70;43.02;94367.21;827313;71;32818;-79
2021/03/05 06:16:14;;;;;;;30.82;18.65;;;;;;;;;;813837;70;29731;-76
2021/03/05 06:31:15;;;;;;;34.83;21.15;;;;;;;14.90;34.58;94368.57;827909;71;30362;-79
2021/03/05 06:46:35;;;;;;;33.18;21.82;;;;;;;16.34;31.81;94369.83;827196;71;32827;-77
2021/03/05 07:01:15;;;;;;;29.30;20.00;;;;;;;16.92;30.33;94367.97;818450;71;33294;-77
2021/03/05 07:16:12;;;;;;;27.25;19.52;;;;;;;16.95;29.78;94367.33;827901;71;32028;-80
2021/03/05 07:31:09;;;;;;;26.65;19.23;;;;;;;17.77;29.20;94358.38;834035;71;30597;-77
2021/03/05 07:46:09;;;;;;;28.45;17.77;;;;;;;17.84;28.24;94348.53;833455;71;29786;-77
2021/03/05 08:01:16;;;;;;;26.48;18.98;;;;;;;18.58;27.57;94341.00;818972;71;33187;-78
2021/03/05 08:16:33;;;;;;;26.57;22.07;;;;;;;19.65;26.44;94326.49;833590;71;32788;-79
2021/03/05 08:31:33;;;;;;;20.12;15.60;;;;;;;21.20;23.13;94306.20;834345;70;29716;-82
2021/03/05 08:46:12;;;;;;;18.40;14.45;;;;;;;23.29;20.98;94294.42;828293;71;31973;-82
2021/03/05 09:01:29;;;;;;;18.60;15.83;;;;;;;24.71;19.52;94285.15;832310;71;29946;-82
2021/03/05 09:16:17;;;;;;;8.33;6.80;;;;;;;25.62;16.92;94263.73;827669;71;32717;-80
2021/03/05 09:31:20;;;;;;;6.90;6.20;;;;;;;26.47;15.40;94256.39;834553;71;32698;-79
2021/03/05 09:46:23;;;;;;;7.37;6.13;;;;;;;27.01;14.89;94241.14;834067;71;30556;-83
2021/03/05 10:01:14;;;;;;;6.43;5.80;;;;;;;26.98;14.49;94223.27;822904;70;31512;-78
2021/03/05 10:16:14;;;;;;;5.90;5.13;;;;;;;27.45;13.50;94216.66;829999;70;29941;-83
2021/03/05 10:31:14;;;;;;;4.70;4.30;;;;;;;27.67;13.17;94192.31;827401;71;33218;-79
2021/03/05 10:46:13;;;;;;;4.27;3.97;;;;;;;;;;833792;71;32049;-79
2021/03/05 11:01:15;;;;;;;4.67;4.20;;;;;;;27.57;12.63;94167.05;827488;71;34086;-82
2021/03/05 11:16:08;;;;;;;5.07;4.50;;;;;;;;;;834265;71;30266;-77
2021/03/05 11:31:10;;;;;;;5.20;3.90;;;;;;;26.94;12.78;94114.06;828327;71;29718;-76
2021/03/05 11:46:16;;;;;;;24.60;22.10;;;;;;;26.20;20.48;94104.97;830328;71;27912;-82
2021/03/05 12:01:12;;;;;;;9.83;7.70;;;;;;;26.13;24.78;94086.19;828065;71;30016;-77
2021/03/05 12:16:13;;;;;;;9.50;6.57;;;;;;;25.47;15.83;94057.48;827715;71;30744;-79
2021/03/05 12:31:09;;;;;;;6.23;5.30;;;;;;;24.52;17.72;94059.02;819745;71;30361;-77
2021/03/05 13:01:15;;;;;;;8.53;5.80;;;;;;;23.30;15.56;94034.16;827268;71;33287;-78
2021/03/05 13:16:18;;;;;;;7.50;5.60;;;;;;;22.61;15.92;94031.81;827235;71;32788;-78
2021/03/05 13:31:15;;;;;;;7.50;5.40;;;;;;;22.33;16.32;94022.51;833846;71;32734;-77
2021/03/05 13:46:15;;;;;;;6.47;5.78;;;;;;;21.59;16.76;93987.45;833879;71;32679;-76
2021/03/05 14:01:13;;;;;;;12.70;5.58;;;;;;;20.92;16.69;93969.70;814990;71;32192;-77
2021/03/05 14:16:09;;;;;;;8.03;5.28;;;;;;;20.32;18.08;94004.63;828083;71;29652;-78
2021/03/05 14:31:14;;;;;;;5.70;5.05;;;;;;;19.61;18.10;94017.67;817224;71;33195;-76
2021/03/05 14:46:18;;;;;;;6.28;4.80;;;;;;;19.15;18.14;94026.41;827995;71;32753;-76
2021/03/05 15:01:29;;;;;;;4.22;3.85;;;;;;;18.70;17.80;94053.09;829269;71;30152;-77
2021/03/05 15:16:15;;;;;;;5.95;4.25;;;;;;;18.30;17.97;94042.22;827440;71;32695;-78
2021/03/05 15:31:15;;;;;;;6.72;4.10;;;;;;;17.98;18.00;94068.06;827435;71;33215;-77
2021/03/05 15:46:14;;;;;;;15.38;6.17;;;;;;;17.62;18.40;94072.53;827919;71;32747;-78
2021/03/05 16:01:12;;;;;;;7.30;5.87;;;;;;;17.14;18.55;94096.89;828694;71;32018;-79
2021/03/05 16:16:08;;;;;;;7.65;5.97;;;;;;;16.56;19.37;94105.87;828977;71;29802;-79
2021/03/05 17:01:24;;;;;;;20.40;10.75;;;;;;;14.74;21.42;94154.91;834359;71;32802;-81
